Time;durP1;ratioP1;P1;durP2;ratioP2;P2;SDS_P1;SDS_P2;PMS_P1;PMS_P2;Temp;Humidity;BMP_temperature;BMP_pressure;BME280_temperature;BME280_humidity;BME280_pressure;Samples;Min_cycle;Max_cycle;Signal;HPM_P1;HPM_P2
2024/01/27 00:00:21;;;;;;;5.15;1.05;;;;;;;;;;5103657;28;20422;-75
2024/01/27 00:02:52;;;;;;;8.20;1.25;;;;;;;;;;5103005;28;20059;-76
2024/01/27 00:05:23;;;;;;;9.98;1.27;;;;;;;;;;5103506;28;20056;-75
2024/01/27 00:07:57;;;;;;;8.05;1.20;;;;;;;;;;5103190;28;20514;-75
2024/01/27 00:10:28;;;;;;;10.90;1.50;;;;;;;;;;5102986;28;20050;-74
2024/01/27 00:12:58;;;;;;;10.30;1.30;;;;;;;;;;5102828;28;20429;-74
2024/01/27 00:15:29;;;;;;;12.48;1.85;;;;;;;;;;5102496;28;20521;-73
2024/01/27 00:17:59;;;;;;;10.05;1.13;;;;;;;;;;5102746;27;20517;-73
2024/01/27 00:20:31;;;;;;;8.18;1.88;;;;;;;;;;5102733;28;20526;-76
2024/01/27 00:23:01;;;;;;;10.07;1.67;;;;;;;;;;5103297;28;20042;-74
2024/01/27 00:25:31;;;;;;;6.10;1.25;;;;;;;;;;5100855;28;20048;-74
2024/01/27 00:28:02;;;;;;;8.80;1.52;;;;;;;;;;5102639;28;20414;-73
2024/01/27 00:30:33;;;;;;;12.45;1.42;;;;;;;;;;5101337;28;20048;-74
2024/01/27 00:33:04;;;;;;;8.13;1.05;;;;;;;;;;5102697;28;20054;-73
2024/01/27 00:35:36;;;;;;;7.78;1.00;;;;;;;;;;5099867;28;20047;-74
2024/01/27 00:38:06;;;;;;;8.60;1.10;;;;;;;;;;5099028;28;20055;-73
2024/01/27 00:40:38;;;;;;;18.50;1.52;;;;;;;;;;5102780;28;20494;-73
2024/01/27 00:43:09;;;;;;;8.93;1.30;;;;;;;;;;5102575;28;20050;-74
2024/01/27 00:45:40;;;;;;;4.90;0.88;;;;;;;;;;5100901;28;20506;-73
2024/01/27 00:48:10;;;;;;;9.07;1.20;;;;;;;;;;5101947;28;20052;-73
2024/01/27 00:50:41;;;;;;;3.40;1.17;;;;;;;;;;5102784;28;20055;-73
2024/01/27 00:53:12;;;;;;;10.05;1.20;;;;;;;;;;5102497;28;20047;-73
2024/01/27 00:55:43;;;;;;;5.32;1.20;;;;;;;;;;5102450;28;20070;-73
2024/01/27 00:58:13;;;;;;;8.43;1.10;;;;;;;;;;5102194;28;20058;-73
2024/01/27 01:00:44;;;;;;;7.10;1.10;;;;;;;;;;5102058;28;20755;-73
2024/01/27 01:03:14;;;;;;;9.57;1.42;;;;;;;;;;5101848;28;20406;-73
2024/01/27 01:05:45;;;;;;;7.68;1.38;;;;;;;;;;5102849;28;20051;-73
2024/01/27 01:08:17;;;;;;;6.95;1.42;;;;;;;;;;5102213;28;20036;-74
2024/01/27 01:10:48;;;;;;;8.57;1.20;;;;;;;;;;5102428;28;20521;-73
2024/01/27 01:13:19;;;;;;;8.55;1.13;;;;;;;;;;5102566;28;20043;-73
2024/01/27 01:15:49;;;;;;;11.15;1.05;;;;;;;;;;5102458;28;20054;-74
2024/01/27 01:18:19;;;;;;;5.75;0.98;;;;;;;;;;5102668;28;20051;-73
2024/01/27 01:20:50;;;;;;;12.32;1.25;;;;;;;;;;5103344;28;20767;-73
2024/01/27 01:23:20;;;;;;;5.63;1.30;;;;;;;;;;5102347;28;20394;-74
2024/01/27 01:25:50;;;;;;;8.25;0.77;;;;;;;;;;5101782;28;20043;-74
2024/01/27 01:28:20;;;;;;;9.70;1.08;;;;;;;;;;5101661;28;20050;-73
2024/01/27 01:30:52;;;;;;;4.63;0.98;;;;;;;;;;5102531;28;20410;-72
2024/01/27 01:33:25;;;;;;;8.98;0.90;;;;;;;;;;5102267;28;20048;-74
2024/01/27 01:35:56;;;;;;;10.02;1.02;;;;;;;;;;5101105;28;20040;-73
2024/01/27 01:38:26;;;;;;;7.38;1.50;;;;;;;;;;5102112;28;20259;-74
2024/01/27 01:40:56;;;;;;;7.85;1.08;;;;;;;;;;5102312;28;20039;-74
2024/01/27 01:43:27;;;;;;;15.32;1.42;;;;;;;;;;5101932;28;20047;-73
2024/01/27 01:45:57;;;;;;;8.77;1.00;;;;;;;;;;5102067;28;20055;-73
2024/01/27 01:48:29;;;;;;;12.23;3.03;;;;;;;;;;5102217;28;20052;-74
2024/01/27 01:51:00;;;;;;;9.45;1.55;;;;;;;;;;5102164;28;20498;-73
2024/01/27 01:53:31;;;;;;;10.20;1.13;;;;;;;;;;5102643;28;20513;-73
2024/01/27 01:56:04;;;;;;;10.35;1.85;;;;;;;;;;5102346;28;20054;-74
2024/01/27 01:58:35;;;;;;;7.95;1.33;;;;;;;;;;5102155;28;20051;-73
2024/01/27 02:01:06;;;;;;;7.60;1.02;;;;;;;;;;5102014;28;20054;-73
2024/01/27 02:03:36;;;;;;;8.73;1.40;;;;;;;;;;5101301;28;20039;-73
2024/01/27 02:06:07;;;;;;;7.65;1.35;;;;;;;;;;5102261;28;20043;-73
2024/01/27 02:08:38;;;;;;;9.75;1.10;;;;;;;;;;5101813;28;20054;-74
2024/01/27 02:11:09;;;;;;;7.50;1.20;;;;;;;;;;5102081;28;20422;-73
2024/01/27 02:13:39;;;;;;;12.77;1.60;;;;;;;;;;5104686;28;20051;-73
2024/01/27 02:16:10;;;;;;;8.07;1.10;;;;;;;;;;5103305;28;20633;-74
2024/01/27 02:18:42;;;;;;;9.30;1.08;;;;;;;;;;5105842;28;20044;-73
2024/01/27 02:21:14;;;;;;;14.73;1.40;;;;;;;;;;5105268;28;20502;-74
2024/01/27 02:23:45;;;;;;;10.20;1.23;;;;;;;;;;5105458;28;20050;-75
2024/01/27 02:26:15;;;;;;;8.82;1.05;;;;;;;;;;5105589;28;20054;-74
2024/01/27 02:28:46;;;;;;;8.65;1.65;;;;;;;;;;5105439;28;20046;-73
2024/01/27 02:31:17;;;;;;;11.52;1.10;;;;;;;;;;5105176;28;20052;-74
2024/01/27 02:33:48;;;;;;;7.97;1.08;;;;;;;;;;5105152;28;20054;-74
2024/01/27 02:36:18;;;;;;;6.57;0.90;;;;;;;;;;5105491;28;20043;-73
2024/01/27 02:38:50;;;;;;;5.68;0.77;;;;;;;;;;5105291;28;20044;-74
2024/01/27 02:41:21;;;;;;;7.75;1.05;;;;;;;;;;5105208;28;20122;-73
2024/01/27 02:43:51;;;;;;;8.82;1.23;;;;;;;;;;5105336;28;20043;-74
2024/01/27 02:46:23;;;;;;;7.93;1.30;;;;;;;;;;5104641;28;20047;-73
2024/01/27 02:48:53;;;;;;;4.95;0.73;;;;;;;;;;5104935;28;20039;-73
2024/01/27 02:51:24;;;;;;;6.75;1.20;;;;;;;;;;5104599;28;20043;-73
2024/01/27 02:53:54;;;;;;;7.38;1.42;;;;;;;;;;5104897;28;20102;-74
2024/01/27 02:56:25;;;;;;;8.38;2.25;;;;;;;;;;5105074;28;20470;-74
2024/01/27 02:58:56;;;;;;;4.38;1.15;;;;;;;;;;5104924;28;20035;-74
2024/01/27 03:01:27;;;;;;;6.70;1.35;;;;;;;;;;5104907;28;20498;-73
2024/01/27 03:03:58;;;;;;;8.32;1.30;;;;;;;;;;5104729;28;20533;-73
2024/01/27 03:06:28;;;;;;;9.30;1.27;;;;;;;;;;5104701;28;20048;-74
2024/01/27 03:08:59;;;;;;;9.80;1.20;;;;;;;;;;5104308;28;20052;-72
2024/01/27 03:11:30;;;;;;;8.85;1.10;;;;;;;;;;5104056;28;20512;-74
2024/01/27 03:14:01;;;;;;;12.23;1.55;;;;;;;;;;5104842;28;20051;-74
2024/01/27 03:16:32;;;;;;;6.32;1.08;;;;;;;;;;5104095;28;20040;-75
2024/01/27 03:19:03;;;;;;;11.45;1.48;;;;;;;;;;5102457;28;20048;-77
2024/01/27 03:21:33;;;;;;;9.52;1.45;;;;;;;;;;5102415;28;20510;-73
2024/01/27 03:24:04;;;;;;;11.82;1.10;;;;;;;;;;5102679;28;20058;-73
2024/01/27 03:26:35;;;;;;;5.03;1.13;;;;;;;;;;5104140;28;20055;-73
2024/01/27 03:29:05;;;;;;;4.70;1.17;;;;;;;;;;5103583;28;20058;-75
2024/01/27 03:31:37;;;;;;;8.57;1.15;;;;;;;;;;5102929;28;20410;-75
2024/01/27 03:34:08;;;;;;;10.05;1.17;;;;;;;;;;5104007;28;20043;-74
2024/01/27 03:36:39;;;;;;;7.00;1.27;;;;;;;;;;5103755;28;20059;-75
2024/01/27 03:39:10;;;;;;;13.80;1.40;;;;;;;;;;5103800;28;20052;-74
2024/01/27 03:41:39;;;;;;;11.45;1.30;;;;;;;;;;5103206;28;20437;-73
2024/01/27 03:44:11;;;;;;;7.97;1.17;;;;;;;;;;5102179;28;20075;-73
2024/01/27 03:46:42;;;;;;;12.10;1.80;;;;;;;;;;5103973;28;20052;-73
2024/01/27 03:49:12;;;;;;;4.57;1.10;;;;;;;;;;5104595;28;20050;-73
2024/01/27 03:51:43;;;;;;;7.75;0.90;;;;;;;;;;5104144;28;20744;-73
2024/01/27 03:54:13;;;;;;;5.82;1.20;;;;;;;;;;5103577;28;20047;-74
2024/01/27 03:56:45;;;;;;;10.23;1.25;;;;;;;;;;5103952;28;20056;-73
2024/01/27 03:59:14;;;;;;;5.82;1.30;;;;;;;;;;5085044;28;20526;-73
2024/01/27 04:01:45;;;;;;;7.53;1.25;;;;;;;;;;5103282;28;20043;-74
2024/01/27 04:04:16;;;;;;;8.57;1.42;;;;;;;;;;5103939;28;20521;-74
2024/01/27 04:06:46;;;;;;;5.53;1.27;;;;;;;;;;5102849;28;20050;-74
2024/01/27 04:09:18;;;;;;;11.02;1.30;;;;;;;;;;5103384;28;20051;-74
2024/01/27 04:11:49;;;;;;;9.02;1.20;;;;;;;;;;5102918;28;20051;-74
2024/01/27 04:14:19;;;;;;;5.70;1.17;;;;;;;;;;5103302;28;20058;-73
2024/01/27 04:16:50;;;;;;;12.45;1.33;;;;;;;;;;5101551;28;20433;-72
2024/01/27 04:19:21;;;;;;;7.72;1.10;;;;;;;;;;5102898;28;20051;-75
2024/01/27 04:21:52;;;;;;;10.30;1.52;;;;;;;;;;5103445;28;20474;-73
2024/01/27 04:24:22;;;;;;;6.20;1.10;;;;;;;;;;5103249;28;20502;-74
2024/01/27 04:26:53;;;;;;;6.40;1.02;;;;;;;;;;5103199;28;20043;-74
2024/01/27 04:29:24;;;;;;;5.95;1.40;;;;;;;;;;5102922;28;20510;-75
2024/01/27 04:31:54;;;;;;;5.18;0.95;;;;;;;;;;5101990;28;20410;-74
2024/01/27 04:34:24;;;;;;;4.90;0.98;;;;;;;;;;5102802;28;20044;-75
2024/01/27 04:36:57;;;;;;;6.63;1.25;;;;;;;;;;5103101;28;20035;-74
2024/01/27 04:39:28;;;;;;;14.85;1.75;;;;;;;;;;5102996;28;20048;-74
2024/01/27 04:41:58;;;;;;;12.80;1.83;;;;;;;;;;5102572;28;20071;-74
2024/01/27 04:44:29;;;;;;;8.95;1.50;;;;;;;;;;5102610;28;20050;-73
2024/01/27 04:47:00;;;;;;;7.53;1.30;;;;;;;;;;5101739;28;20536;-73
2024/01/27 04:49:31;;;;;;;6.97;1.23;;;;;;;;;;5102834;28;20516;-74
2024/01/27 04:52:02;;;;;;;6.63;1.38;;;;;;;;;;5103327;28;20055;-74
2024/01/27 04:54:31;;;;;;;7.82;0.95;;;;;;;;;;5102879;28;20051;-74
2024/01/27 04:57:02;;;;;;;16.33;1.45;;;;;;;;;;5102460;28;20044;-74
2024/01/27 04:59:32;;;;;;;6.15;1.13;;;;;;;;;;5102660;28;20082;-73
2024/01/27 05:02:03;;;;;;;9.80;1.30;;;;;;;;;;5102883;28;20067;-73
2024/01/27 05:04:34;;;;;;;10.18;1.30;;;;;;;;;;5102969;28;20039;-73
2024/01/27 05:07:05;;;;;;;5.68;1.13;;;;;;;;;;5102467;28;20044;-73
2024/01/27 05:09:36;;;;;;;6.60;1.02;;;;;;;;;;5102546;28;20047;-75
2024/01/27 05:12:07;;;;;;;9.90;1.50;;;;;;;;;;5102368;28;20532;-74
2024/01/27 05:14:38;;;;;;;7.25;1.05;;;;;;;;;;5102675;28;20043;-73
2024/01/27 05:17:09;;;;;;;11.32;1.63;;;;;;;;;;5101752;28;20046;-74
2024/01/27 05:19:40;;;;;;;5.38;1.35;;;;;;;;;;5101964;28;20055;-74
2024/01/27 05:22:10;;;;;;;7.65;1.58;;;;;;;;;;5102257;28;20054;-74
2024/01/27 05:24:41;;;;;;;6.50;1.20;;;;;;;;;;5102593;28;20072;-74
2024/01/27 05:27:11;;;;;;;8.27;1.63;;;;;;;;;;5102301;28;20044;-73
2024/01/27 05:29:41;;;;;;;5.97;1.13;;;;;;;;;;5101840;28;20048;-73
2024/01/27 05:32:12;;;;;;;6.43;1.42;;;;;;;;;;5101974;28;20047;-74
2024/01/27 05:34:46;;;;;;;6.57;0.95;;;;;;;;;;5102407;28;20047;-74
2024/01/27 05:37:17;;;;;;;5.45;0.88;;;;;;;;;;5102355;28;20043;-74
2024/01/27 05:39:46;;;;;;;6.30;1.38;;;;;;;;;;5102234;28;20417;-74
2024/01/27 05:42:19;;;;;;;10.45;1.50;;;;;;;;;;5102491;28;20047;-73
2024/01/27 05:44:50;;;;;;;7.20;1.50;;;;;;;;;;5102791;28;20117;-74
2024/01/27 05:47:20;;;;;;;6.90;1.45;;;;;;;;;;5103589;28;20047;-73
2024/01/27 05:49:50;;;;;;;6.45;1.38;;;;;;;;;;5105385;28;20036;-74
2024/01/27 05:52:22;;;;;;;5.90;1.27;;;;;;;;;;5105785;28;20047;-74
2024/01/27 05:54:55;;;;;;;5.28;1.00;;;;;;;;;;5105915;28;20043;-74
2024/01/27 05:57:27;;;;;;;7.85;1.58;;;;;;;;;;5106065;28;20410;-74
2024/01/27 05:59:57;;;;;;;4.03;1.10;;;;;;;;;;5106399;28;20512;-74
2024/01/27 06:02:27;;;;;;;6.95;1.13;;;;;;;;;;5105509;28;20050;-74
2024/01/27 06:04:59;;;;;;;9.20;1.10;;;;;;;;;;5086638;28;20047;-74
2024/01/27 06:07:31;;;;;;;5.40;1.30;;;;;;;;;;5103852;28;20051;-73
2024/01/27 06:10:01;;;;;;;11.63;1.42;;;;;;;;;;5105755;28;20437;-75
2024/01/27 06:12:32;;;;;;;5.97;0.98;;;;;;;;;;5105790;28;20047;-74
2024/01/27 06:15:03;;;;;;;6.20;2.15;;;;;;;;;;5105898;28;20062;-74
2024/01/27 06:17:34;;;;;;;3.92;0.98;;;;;;;;;;5105559;28;20680;-74
2024/01/27 06:20:06;;;;;;;10.95;1.27;;;;;;;;;;5105935;28;20056;-73
2024/01/27 06:22:36;;;;;;;6.72;1.45;;;;;;;;;;5105548;28;20409;-74
2024/01/27 06:25:10;;;;;;;4.13;1.02;;;;;;;;;;5105511;28;20528;-74
2024/01/27 06:27:41;;;;;;;8.20;0.85;;;;;;;;;;5105489;28;20047;-73
2024/01/27 06:30:12;;;;;;;6.05;1.20;;;;;;;;;;5105539;28;20051;-73
2024/01/27 06:32:43;;;;;;;5.80;1.30;;;;;;;;;;5105806;28;20501;-73
2024/01/27 06:35:14;;;;;;;7.32;1.08;;;;;;;;;;5104680;28;20051;-74
2024/01/27 06:37:46;;;;;;;5.63;1.20;;;;;;;;;;5104972;28;20047;-74
2024/01/27 06:40:17;;;;;;;7.57;1.30;;;;;;;;;;5106073;28;20048;-74
2024/01/27 06:42:47;;;;;;;5.57;1.05;;;;;;;;;;5104772;28;20051;-75
2024/01/27 06:45:18;;;;;;;3.60;0.90;;;;;;;;;;5105182;28;20055;-74
2024/01/27 06:47:49;;;;;;;7.97;1.13;;;;;;;;;;5105298;28;20050;-74
2024/01/27 06:50:19;;;;;;;9.20;1.42;;;;;;;;;;5104764;28;20039;-73
2024/01/27 06:52:49;;;;;;;5.43;0.82;;;;;;;;;;5104773;28;20047;-75
2024/01/27 06:55:20;;;;;;;4.72;1.13;;;;;;;;;;5105195;28;20043;-74
2024/01/27 06:57:50;;;;;;;7.15;1.55;;;;;;;;;;5105340;28;20053;-73
2024/01/27 07:00:21;;;;;;;7.35;1.40;;;;;;;;;;5105029;28;20498;-74
2024/01/27 07:02:52;;;;;;;7.50;1.80;;;;;;;;;;5104434;28;20051;-75
2024/01/27 07:05:22;;;;;;;7.00;1.42;;;;;;;;;;5105197;28;20047;-74
2024/01/27 07:07:53;;;;;;;4.68;1.23;;;;;;;;;;5104889;28;20050;-73
2024/01/27 07:10:23;;;;;;;12.00;1.70;;;;;;;;;;5104687;28;21304;-74
2024/01/27 07:12:56;;;;;;;10.23;1.45;;;;;;;;;;5103993;28;20050;-74
2024/01/27 07:15:27;;;;;;;11.05;1.83;;;;;;;;;;5104237;28;20047;-74
2024/01/27 07:17:57;;;;;;;5.65;1.27;;;;;;;;;;5104501;28;20046;-74
2024/01/27 07:20:29;;;;;;;14.05;1.65;;;;;;;;;;5104481;28;20740;-74
2024/01/27 07:23:00;;;;;;;10.30;1.83;;;;;;;;;;5103914;28;20047;-74
2024/01/27 07:25:31;;;;;;;5.20;1.13;;;;;;;;;;5103910;28;20046;-74
2024/01/27 07:28:00;;;;;;;11.60;1.48;;;;;;;;;;5103815;28;20628;-74
2024/01/27 07:30:32;;;;;;;8.40;1.38;;;;;;;;;;5103781;28;20403;-74
2024/01/27 07:33:03;;;;;;;10.32;1.52;;;;;;;;;;5104083;28;20082;-75
2024/01/27 07:35:33;;;;;;;7.65;1.63;;;;;;;;;;5104009;28;20040;-74
2024/01/27 07:38:04;;;;;;;5.10;1.55;;;;;;;;;;5104827;28;20420;-74
2024/01/27 07:40:34;;;;;;;7.90;1.45;;;;;;;;;;5103744;28;20047;-74
2024/01/27 07:43:05;;;;;;;8.88;1.55;;;;;;;;;;5103849;28;21068;-74
2024/01/27 07:45:36;;;;;;;8.60;2.00;;;;;;;;;;5104028;28;20039;-74
2024/01/27 07:48:07;;;;;;;7.35;2.08;;;;;;;;;;5103901;28;20384;-74
2024/01/27 07:50:38;;;;;;;11.15;2.20;;;;;;;;;;5103961;28;21200;-74
2024/01/27 07:53:10;;;;;;;8.23;1.60;;;;;;;;;;5103271;28;20529;-73
2024/01/27 07:55:40;;;;;;;8.40;1.80;;;;;;;;;;5103899;28;20051;-73
2024/01/27 07:58:10;;;;;;;10.05;2.10;;;;;;;;;;5103224;28;20047;-74
2024/01/27 08:00:41;;;;;;;9.25;1.98;;;;;;;;;;5103691;28;20403;-73
2024/01/27 08:03:12;;;;;;;6.57;1.73;;;;;;;;;;5103654;28;20047;-73
2024/01/27 08:05:42;;;;;;;12.75;3.38;;;;;;;;;;5103285;28;20054;-74
2024/01/27 08:08:12;;;;;;;4.00;1.85;;;;;;;;;;5103833;28;20040;-74
2024/01/27 08:10:43;;;;;;;12.13;2.65;;;;;;;;;;5103011;28;20683;-74
2024/01/27 08:13:14;;;;;;;9.20;2.15;;;;;;;;;;5101700;28;20048;-75
2024/01/27 08:15:44;;;;;;;8.98;1.95;;;;;;;;;;5100749;28;20054;-84
2024/01/27 08:18:15;;;;;;;12.82;2.05;;;;;;;;;;5103015;28;20051;-75
2024/01/27 08:20:46;;;;;;;11.70;2.22;;;;;;;;;;5103354;28;20048;-74
2024/01/27 08:23:17;;;;;;;8.88;1.77;;;;;;;;;;5103151;28;20505;-74
2024/01/27 08:25:49;;;;;;;7.93;1.52;;;;;;;;;;5103856;28;20544;-74
2024/01/27 08:28:20;;;;;;;10.18;2.50;;;;;;;;;;5101322;28;20430;-74
2024/01/27 08:30:50;;;;;;;7.53;2.20;;;;;;;;;;5102790;28;20059;-74
2024/01/27 08:33:21;;;;;;;9.98;2.25;;;;;;;;;;5101256;28;20062;-74
2024/01/27 08:35:51;;;;;;;9.35;2.03;;;;;;;;;;5103234;28;20044;-75
2024/01/27 08:38:22;;;;;;;6.90;1.67;;;;;;;;;;5102970;28;20051;-74
2024/01/27 08:40:53;;;;;;;7.43;1.70;;;;;;;;;;5103452;28;20058;-74
2024/01/27 08:43:23;;;;;;;8.88;1.65;;;;;;;;;;5102755;28;20051;-74
2024/01/27 08:45:54;;;;;;;12.85;1.80;;;;;;;;;;5102902;28;20047;-74
2024/01/27 08:48:26;;;;;;;12.77;2.03;;;;;;;;;;5102895;28;20051;-73
2024/01/27 08:50:56;;;;;;;5.57;1.48;;;;;;;;;;5100720;28;20059;-74
2024/01/27 08:53:28;;;;;;;7.45;1.55;;;;;;;;;;5102713;28;20048;-74
2024/01/27 08:55:58;;;;;;;9.02;1.58;;;;;;;;;;5103382;28;20048;-74
2024/01/27 08:58:28;;;;;;;10.13;1.67;;;;;;;;;;5102258;28;20474;-74
2024/01/27 09:01:05;;;;;;;7.13;1.55;;;;;;;;;;5102795;28;20044;-76
2024/01/27 09:03:36;;;;;;;8.25;1.38;;;;;;;;;;5103227;28;20044;-74
2024/01/27 09:06:10;;;;;;;7.97;1.55;;;;;;;;;;5102946;28;20498;-74
2024/01/27 09:08:41;;;;;;;2.63;1.02;;;;;;;;;;5100058;28;20082;-73
2024/01/27 09:11:11;;;;;;;7.60;1.45;;;;;;;;;;5102216;28;20094;-74
2024/01/27 09:13:41;;;;;;;7.88;1.42;;;;;;;;;;5102247;28;20055;-74
2024/01/27 09:16:14;;;;;;;7.50;3.35;;;;;;;;;;5102673;28;20051;-74
2024/01/27 09:18:46;;;;;;;7.80;1.70;;;;;;;;;;5102636;28;20044;-74
2024/01/27 09:21:20;;;;;;;9.77;2.25;;;;;;;;;;5102444;28;20620;-74
2024/01/27 09:23:50;;;;;;;6.35;1.27;;;;;;;;;;5106510;28;20044;-75
2024/01/27 09:26:22;;;;;;;6.85;1.40;;;;;;;;;;5105940;28;20051;-76
2024/01/27 09:28:56;;;;;;;9.00;1.50;;;;;;;;;;5106593;28;20048;-76
2024/01/27 09:31:26;;;;;;;9.82;1.73;;;;;;;;;;5106326;28;20047;-75
2024/01/27 09:33:57;;;;;;;9.18;1.73;;;;;;;;;;5107196;28;20407;-76
2024/01/27 09:36:29;;;;;;;6.53;1.60;;;;;;;;;;5107342;28;20413;-75
2024/01/27 09:39:00;;;;;;;3.03;1.42;;;;;;;;;;5107113;28;20043;-75
2024/01/27 09:41:32;;;;;;;7.13;1.40;;;;;;;;;;5106588;28;20402;-75
2024/01/27 09:44:03;;;;;;;7.78;1.63;;;;;;;;;;5106048;28;20035;-75
2024/01/27 09:46:34;;;;;;;4.60;1.30;;;;;;;;;;5105784;28;20047;-75
2024/01/27 09:49:05;;;;;;;4.63;1.33;;;;;;;;;;5106162;28;20044;-75
2024/01/27 09:51:36;;;;;;;4.65;1.33;;;;;;;;;;5106303;28;20055;-75
2024/01/27 09:54:07;;;;;;;10.57;1.52;;;;;;;;;;5106245;28;20043;-75
2024/01/27 09:56:38;;;;;;;6.32;1.70;;;;;;;;;;5105455;28;20055;-76
2024/01/27 09:59:10;;;;;;;5.93;1.42;;;;;;;;;;5105552;28;20055;-76
2024/01/27 10:01:40;;;;;;;8.60;2.10;;;;;;;;;;5105808;28;20414;-75
2024/01/27 10:04:11;;;;;;;8.38;1.60;;;;;;;;;;5106041;28;20039;-75
2024/01/27 10:06:43;;;;;;;7.78;1.70;;;;;;;;;;5106115;28;20060;-76
2024/01/27 10:09:15;;;;;;;10.13;1.55;;;;;;;;;;5103587;28;20055;-85
2024/01/27 10:11:48;;;;;;;5.72;1.35;;;;;;;;;;5106013;28;20521;-74
2024/01/27 10:14:19;;;;;;;4.93;1.30;;;;;;;;;;5105708;28;20517;-74
2024/01/27 10:16:49;;;;;;;10.88;1.27;;;;;;;;;;5105615;28;20424;-74
2024/01/27 10:19:21;;;;;;;16.55;1.48;;;;;;;;;;5104336;28;20055;-73
2024/01/27 10:22:04;;;;;;;8.65;1.48;;;;;;;;;;5105995;28;20382;-76
2024/01/27 10:24:35;;;;;;;16.92;1.92;;;;;;;;;;5105450;28;20047;-76
2024/01/27 10:27:07;;;;;;;16.00;1.75;;;;;;;;;;5105856;28;20046;-76
2024/01/27 10:29:38;;;;;;;11.48;1.77;;;;;;;;;;5103878;27;20064;-76
2024/01/27 10:32:10;;;;;;;5.97;1.25;;;;;;;;;;5104724;28;20051;-77
2024/01/27 10:34:40;;;;;;;28.02;2.70;;;;;;;;;;5104387;28;20051;-76
2024/01/27 10:37:13;;;;;;;24.38;2.35;;;;;;;;;;5104780;28;20070;-80
2024/01/27 10:39:48;;;;;;;40.38;2.80;;;;;;;;;;5104247;28;20054;-77
2024/01/27 10:42:19;;;;;;;19.75;2.00;;;;;;;;;;5103818;28;20521;-75
2024/01/27 10:44:51;;;;;;;11.05;2.20;;;;;;;;;;5104241;28;20055;-76
2024/01/27 10:47:23;;;;;;;79.68;6.15;;;;;;;;;;5104342;28;20051;-75
2024/01/27 10:49:59;;;;;;;39.67;3.63;;;;;;;;;;5103334;28;20047;-74
2024/01/27 10:52:33;;;;;;;14.65;1.40;;;;;;;;;;5104786;28;20051;-74
2024/01/27 10:55:09;;;;;;;57.67;2.58;;;;;;;;;;5105051;28;20066;-75
2024/01/27 10:57:41;;;;;;;18.33;1.70;;;;;;;;;;5104864;28;20048;-74
2024/01/27 11:00:14;;;;;;;23.38;2.00;;;;;;;;;;5104930;28;20055;-75
2024/01/27 11:02:52;;;;;;;79.50;4.97;;;;;;;;;;5104099;27;20055;-75
2024/01/27 11:05:25;;;;;;;24.08;1.55;;;;;;;;;;5104209;28;20410;-75
2024/01/27 11:07:56;;;;;;;14.27;1.73;;;;;;;;;;5104372;28;20494;-74
2024/01/27 11:10:30;;;;;;;30.90;2.28;;;;;;;;;;5104627;28;20129;-76
2024/01/27 11:13:02;;;;;;;26.77;2.35;;;;;;;;;;5103700;28;20051;-74
2024/01/27 11:15:33;;;;;;;37.42;2.40;;;;;;;;;;5104988;28;20047;-74
2024/01/27 11:18:05;;;;;;;58.67;3.33;;;;;;;;;;5104735;28;20047;-74
2024/01/27 11:20:36;;;;;;;129.30;8.50;;;;;;;;;;5102778;28;20059;-74
2024/01/27 11:23:16;;;;;;;28.58;2.05;;;;;;;;;;5104328;28;20054;-75
2024/01/27 11:25:49;;;;;;;19.50;2.03;;;;;;;;;;5104186;28;20395;-73
2024/01/27 11:28:26;;;;;;;158.05;9.20;;;;;;;;;;5103984;28;20052;-74
2024/01/27 11:30:57;;;;;;;22.40;1.88;;;;;;;;;;5104861;28;20121;-74
2024/01/27 11:33:27;;;;;;;62.38;4.53;;;;;;;;;;5104692;28;20039;-74
2024/01/27 11:36:04;;;;;;;136.38;7.65;;;;;;;;;;5104260;28;20082;-75
2024/01/27 11:38:34;;;;;;;101.60;4.82;;;;;;;;;;5103578;28;20064;-76
2024/01/27 11:41:04;;;;;;;98.85;5.30;;;;;;;;;;5104358;28;20052;-74
2024/01/27 11:43:35;;;;;;;22.38;1.80;;;;;;;;;;5104064;28;20055;-76
2024/01/27 11:46:06;;;;;;;13.88;1.70;;;;;;;;;;5103304;28;20027;-74
2024/01/27 11:48:42;;;;;;;20.77;1.70;;;;;;;;;;5104339;28;20551;-77
2024/01/27 11:51:13;;;;;;;39.22;2.00;;;;;;;;;;5103432;28;20062;-77
2024/01/27 11:53:44;;;;;;;44.90;2.25;;;;;;;;;;5103589;28;20055;-74
2024/01/27 11:56:16;;;;;;;138.15;7.15;;;;;;;;;;5104046;28;20043;-74
2024/01/27 11:58:50;;;;;;;37.65;2.20;;;;;;;;;;5104180;28;20044;-74
2024/01/27 12:01:21;;;;;;;19.48;1.60;;;;;;;;;;5104572;28;20055;-74
2024/01/27 12:03:51;;;;;;;34.65;2.45;;;;;;;;;;5103299;28;20421;-74
2024/01/27 12:06:23;;;;;;;21.45;2.15;;;;;;;;;;5103784;28;20062;-74
2024/01/27 12:08:58;;;;;;;48.95;4.03;;;;;;;;;;5103501;28;20054;-75
2024/01/27 12:11:31;;;;;;;32.97;2.47;;;;;;;;;;5101971;28;20058;-77
2024/01/27 12:14:02;;;;;;;26.50;2.10;;;;;;;;;;5102875;28;20047;-75
2024/01/27 12:16:34;;;;;;;32.78;2.10;;;;;;;;;;5102315;28;20498;-76
2024/01/27 12:19:05;;;;;;;7.25;1.17;;;;;;;;;;5102741;28;20413;-77
2024/01/27 12:21:36;;;;;;;25.27;2.72;;;;;;;;;;5102989;28;20048;-75
2024/01/27 12:24:17;;;;;;;9.50;1.27;;;;;;;;;;5102543;28;20379;-75
2024/01/27 12:26:52;;;;;;;9.73;1.42;;;;;;;;;;5102680;28;20047;-75
2024/01/27 12:29:24;;;;;;;9.68;1.10;;;;;;;;;;5103400;28;20409;-75
2024/01/27 12:31:55;;;;;;;6.13;0.95;;;;;;;;;;5102580;28;20051;-75
2024/01/27 12:34:25;;;;;;;16.02;1.98;;;;;;;;;;5102603;28;20047;-74
2024/01/27 12:36:59;;;;;;;23.60;1.95;;;;;;;;;;5102501;28;20044;-74
2024/01/27 12:39:31;;;;;;;11.15;1.52;;;;;;;;;;5101860;28;20043;-74
2024/01/27 12:42:01;;;;;;;11.05;1.25;;;;;;;;;;5103083;28;20051;-75
2024/01/27 12:44:31;;;;;;;11.27;1.40;;;;;;;;;;5103039;28;20067;-74
2024/01/27 12:47:02;;;;;;;8.63;1.60;;;;;;;;;;5102806;28;20040;-75
2024/01/27 12:49:33;;;;;;;11.65;1.52;;;;;;;;;;5104908;28;20043;-80
2024/01/27 12:52:05;;;;;;;4.80;0.80;;;;;;;;;;5105210;28;20070;-74
2024/01/27 12:54:36;;;;;;;5.38;1.35;;;;;;;;;;5103524;28;20051;-82
2024/01/27 12:57:07;;;;;;;7.38;1.08;;;;;;;;;;5102543;28;20039;-75
2024/01/27 12:59:39;;;;;;;11.70;0.98;;;;;;;;;;5103498;28;20050;-74
2024/01/27 13:02:10;;;;;;;5.38;1.00;;;;;;;;;;5102331;28;20040;-74
2024/01/27 13:04:40;;;;;;;8.68;1.30;;;;;;;;;;5102402;28;20054;-75
2024/01/27 13:07:11;;;;;;;7.50;1.23;;;;;;;;;;5102529;28;20414;-75
2024/01/27 13:09:42;;;;;;;7.78;1.20;;;;;;;;;;5101227;28;20059;-74
2024/01/27 13:12:14;;;;;;;4.90;1.40;;;;;;;;;;5102441;28;20063;-75
2024/01/27 13:14:44;;;;;;;5.85;1.00;;;;;;;;;;5100879;28;20047;-75
2024/01/27 13:17:14;;;;;;;5.50;0.98;;;;;;;;;;5101065;28;20631;-75
2024/01/27 13:19:46;;;;;;;4.20;0.90;;;;;;;;;;5101660;28;20067;-75
2024/01/27 13:22:17;;;;;;;9.43;1.48;;;;;;;;;;5102330;28;20039;-74
2024/01/27 13:24:48;;;;;;;6.38;1.08;;;;;;;;;;5102317;28;20047;-77
2024/01/27 13:27:22;;;;;;;5.00;1.13;;;;;;;;;;5102477;28;20051;-75
2024/01/27 13:29:54;;;;;;;8.68;1.38;;;;;;;;;;5102941;28;20040;-76
2024/01/27 13:32:26;;;;;;;13.98;1.50;;;;;;;;;;5102198;28;20044;-75
2024/01/27 13:34:56;;;;;;;8.30;1.23;;;;;;;;;;5102023;28;20048;-74
2024/01/27 13:37:27;;;;;;;8.43;0.90;;;;;;;;;;5101720;28;20051;-75
2024/01/27 13:39:57;;;;;;;6.97;1.48;;;;;;;;;;5101986;28;20965;-75
2024/01/27 13:42:28;;;;;;;4.43;1.10;;;;;;;;;;5101979;28;20039;-73
2024/01/27 13:44:59;;;;;;;8.80;1.13;;;;;;;;;;5101834;28;20585;-76
2024/01/27 13:47:30;;;;;;;7.72;1.15;;;;;;;;;;5099261;28;20048;-74
2024/01/27 13:50:00;;;;;;;6.20;0.95;;;;;;;;;;5100122;28;20070;-74
2024/01/27 13:52:33;;;;;;;10.00;1.08;;;;;;;;;;5105640;28;20047;-73
2024/01/27 13:55:23;;;;;;;8.45;1.17;;;;;;;;;;5118129;28;20524;-74
2024/01/27 13:57:56;;;;;;;;;;;;;;;;;;5125637;28;20065;-74
2024/01/27 14:00:30;;;;;;;7.28;1.10;;;;;;;;;;5106789;28;19930;-75
2024/01/27 14:03:07;;;;;;;13.15;1.50;;;;;;;;;;5102597;28;20052;-75
2024/01/27 14:05:38;;;;;;;9.57;1.77;;;;;;;;;;5109148;28;20059;-75
2024/01/27 14:08:10;;;;;;;7.13;1.10;;;;;;;;;;5112176;27;20035;-75
2024/01/27 14:10:43;;;;;;;6.93;1.13;;;;;;;;;;5109454;27;20067;-75
2024/01/27 14:13:14;;;;;;;13.45;1.70;;;;;;;;;;5115078;27;20517;-75
2024/01/27 14:15:45;;;;;;;62.20;4.18;;;;;;;;;;5112780;27;20043;-75
2024/01/27 14:18:20;;;;;;;6.55;1.20;;;;;;;;;;5114127;27;20510;-76
2024/01/27 14:20:51;;;;;;;6.47;1.20;;;;;;;;;;5115338;27;20059;-76
2024/01/27 14:23:23;;;;;;;7.97;1.42;;;;;;;;;;5115763;27;20043;-75
2024/01/27 14:25:54;;;;;;;8.52;1.80;;;;;;;;;;5115461;27;20508;-76
2024/01/27 14:28:24;;;;;;;6.97;1.70;;;;;;;;;;5115708;27;20039;-75
2024/01/27 14:30:54;;;;;;;8.15;0.90;;;;;;;;;;5114110;27;20051;-84
2024/01/27 14:33:25;;;;;;;4.43;1.45;;;;;;;;;;5111051;27;20111;-78
2024/01/27 14:35:56;;;;;;;5.88;1.33;;;;;;;;;;5114527;27;20039;-75
2024/01/27 14:38:26;;;;;;;8.18;1.35;;;;;;;;;;5112112;27;20051;-76
2024/01/27 14:40:57;;;;;;;8.68;1.33;;;;;;;;;;5114038;27;20070;-76
2024/01/27 14:43:27;;;;;;;8.60;1.77;;;;;;;;;;5111937;27;20046;-76
2024/01/27 14:45:58;;;;;;;8.90;1.23;;;;;;;;;;5113313;27;20051;-75
2024/01/27 14:48:30;;;;;;;6.88;1.40;;;;;;;;;;5114898;27;20035;-75
2024/01/27 14:51:03;;;;;;;9.73;1.38;;;;;;;;;;5115428;27;20065;-78
2024/01/27 14:53:34;;;;;;;9.05;1.55;;;;;;;;;;5114365;27;20058;-75
2024/01/27 14:56:06;;;;;;;13.88;1.77;;;;;;;;;;5109773;27;20052;-75
2024/01/27 14:58:37;;;;;;;6.75;1.45;;;;;;;;;;5111381;27;20047;-75
2024/01/27 15:01:07;;;;;;;6.38;1.17;;;;;;;;;;5111550;27;20630;-75